Time;durP1;ratioP1;P1;durP2;ratioP2;P2;SDS_P1;SDS_P2;PMS_P1;PMS_P2;Temp;Humidity;BMP_temperature;BMP_pressure;BME280_temperature;BME280_humidity;BME280_pressure;Samples;Min_cycle;Max_cycle;Signal;HPM_P1;HPM_P2
2024/04/20 00:00:55;;;;;;;14.18;2.95;;;6.50;99.90;;;;;;5468556;26;20055;-77
2024/04/20 00:03:21;;;;;;;7.38;2.28;;;6.50;99.90;;;;;;5454175;26;20847;-77
2024/04/20 00:05:46;;;;;;;9.20;2.40;;;6.50;99.90;;;;;;5462404;26;20006;-78
2024/04/20 00:08:12;;;;;;;6.68;2.13;;;6.50;99.90;;;;;;5455005;26;20523;-77
2024/04/20 00:10:38;;;;;;;9.23;2.28;;;6.50;99.90;;;;;;5475961;26;20009;-77
2024/04/20 00:13:03;;;;;;;9.30;2.17;;;6.50;99.90;;;;;;5469577;26;20344;-78
2024/04/20 00:15:29;;;;;;;7.78;2.03;;;6.50;99.90;;;;;;5453741;26;20011;-78
2024/04/20 00:17:55;;;;;;;7.18;2.00;;;6.60;99.90;;;;;;5457338;26;20018;-77
2024/04/20 00:20:21;;;;;;;6.68;1.95;;;6.50;99.90;;;;;;5453019;26;20047;-78
2024/04/20 00:22:46;;;;;;;6.30;2.00;;;6.60;99.90;;;;;;5461653;26;20014;-78
2024/04/20 00:25:12;;;;;;;6.93;2.20;;;6.50;99.90;;;;;;5453095;26;20017;-78
2024/04/20 00:27:38;;;;;;;6.55;1.90;;;6.50;99.90;;;;;;5454802;26;20006;-78
2024/04/20 00:30:04;;;;;;;8.23;1.80;;;6.50;99.90;;;;;;5461023;26;20097;-78
2024/04/20 00:32:30;;;;;;;5.18;1.55;;;6.50;99.90;;;;;;5473566;26;20007;-78
2024/04/20 00:34:56;;;;;;;6.38;1.65;;;6.60;99.90;;;;;;5450107;26;20003;-78
2024/04/20 00:37:22;;;;;;;7.75;1.70;;;6.60;99.90;;;;;;5461616;26;20370;-78
2024/04/20 00:39:47;;;;;;;6.38;1.60;;;6.60;99.90;;;;;;5448091;26;20087;-78
2024/04/20 00:42:13;;;;;;;9.68;2.08;;;6.60;99.90;;;;;;5461854;26;20017;-78
2024/04/20 00:44:39;;;;;;;5.50;1.85;;;6.70;99.90;;;;;;5462889;26;20359;-78
2024/04/20 00:47:06;;;;;;;7.30;1.80;;;6.70;99.90;;;;;;5456852;26;20006;-78
2024/04/20 00:49:33;;;;;;;8.45;1.80;;;6.70;99.90;;;;;;5461027;26;20006;-78
2024/04/20 00:52:01;;;;;;;6.95;1.90;;;6.70;99.90;;;;;;5450907;26;20018;-78
2024/04/20 00:54:29;;;;;;;9.98;1.77;;;6.80;99.90;;;;;;5464186;26;20014;-78
2024/04/20 00:56:55;;;;;;;6.97;1.65;;;6.90;99.90;;;;;;5477353;26;20038;-77
2024/04/20 00:59:22;;;;;;;7.13;1.77;;;6.80;99.90;;;;;;5464643;26;20006;-78
2024/04/20 01:01:49;;;;;;;6.55;1.77;;;6.80;99.90;;;;;;5465237;26;20031;-78
2024/04/20 01:04:15;;;;;;;5.32;1.70;;;6.80;99.90;;;;;;5484798;26;20006;-78
2024/04/20 01:06:40;;;;;;;6.88;1.77;;;6.80;99.90;;;;;;5451250;26;20449;-78
2024/04/20 01:09:06;;;;;;;6.68;1.88;;;6.80;99.90;;;;;;5457608;26;20006;-78
2024/04/20 01:11:32;;;;;;;4.97;1.58;;;6.80;99.90;;;;;;5481803;26;20007;-78
2024/04/20 01:14:02;;;;;;;7.18;2.13;;;6.90;99.90;;;;;;5477786;26;20014;-78
2024/04/20 01:16:28;;;;;;;8.35;2.10;;;6.80;99.90;;;;;;5473891;26;20014;-78
2024/04/20 01:18:54;;;;;;;9.80;1.70;;;6.90;99.90;;;;;;5482908;26;20012;-78
2024/04/20 01:21:21;;;;;;;7.38;1.90;;;6.90;99.90;;;;;;5461438;26;20006;-79
2024/04/20 01:23:50;;;;;;;3.13;1.33;;;6.80;99.90;;;;;;5466084;26;20047;-78
2024/04/20 01:26:16;;;;;;;4.32;1.75;;;7.70;99.90;;;;;;5468751;26;20018;-78
2024/04/20 01:28:42;;;;;;;6.72;1.65;;;6.90;99.90;;;;;;5464055;26;20010;-78
2024/04/20 01:31:07;;;;;;;4.82;1.50;;;6.90;99.90;;;;;;5463962;26;20030;-78
2024/04/20 01:33:33;;;;;;;7.53;1.85;;;6.90;99.90;;;;;;5454416;26;20003;-78
2024/04/20 01:36:00;;;;;;;9.35;1.65;;;6.90;99.90;;;;;;5453882;26;20021;-78
2024/04/20 01:38:25;;;;;;;5.00;1.13;;;6.90;99.90;;;;;;5463421;26;20470;-78
2024/04/20 01:40:52;;;;;;;5.35;1.50;;;6.90;99.90;;;;;;5465336;26;20003;-78
2024/04/20 01:43:17;;;;;;;7.80;2.25;;;6.80;99.90;;;;;;5484695;26;20003;-78
2024/04/20 01:45:43;;;;;;;4.85;1.55;;;6.80;99.90;;;;;;5464365;26;20039;-78
2024/04/20 01:48:09;;;;;;;6.72;1.52;;;6.90;99.90;;;;;;5456494;26;20013;-78
2024/04/20 01:50:35;;;;;;;6.10;1.45;;;6.90;99.90;;;;;;5461915;26;20008;-78
2024/04/20 01:53:21;;;;;;;6.20;1.73;;;6.80;99.90;;;;;;5481869;26;20002;-78
2024/04/20 01:55:46;;;;;;;8.18;1.50;;;6.80;99.90;;;;;;5477749;26;20078;-78
2024/04/20 01:58:12;;;;;;;7.15;1.80;;;6.80;99.90;;;;;;5466398;26;20019;-78
2024/04/20 02:00:38;;;;;;;2.95;1.35;;;6.80;99.90;;;;;;5476078;26;20018;-78
2024/04/20 02:03:04;;;;;;;6.13;1.50;;;6.80;99.90;;;;;;5467364;26;20007;-78
2024/04/20 02:05:30;;;;;;;5.63;1.58;;;6.70;99.90;;;;;;5460490;26;20007;-78
2024/04/20 02:07:56;;;;;;;7.85;1.60;;;6.70;99.90;;;;;;5475549;26;20007;-78
2024/04/20 02:10:21;;;;;;;7.07;1.77;;;6.70;99.90;;;;;;5480485;26;20014;-78
2024/04/20 02:12:47;;;;;;;7.65;1.67;;;6.70;99.90;;;;;;5477413;26;20075;-78
2024/04/20 02:15:13;;;;;;;3.95;1.52;;;6.70;99.90;;;;;;5457281;26;19998;-78
2024/04/20 02:17:39;;;;;;;6.85;1.70;;;6.70;99.90;;;;;;5471732;26;20015;-78
2024/04/20 02:20:06;;;;;;;4.40;1.50;;;6.80;99.90;;;;;;5463923;26;20007;-78
2024/04/20 02:22:31;;;;;;;8.65;1.55;;;6.80;99.90;;;;;;5480410;26;20007;-78
2024/04/20 02:24:57;;;;;;;4.38;1.70;;;6.90;99.90;;;;;;5464023;26;20018;-78
2024/04/20 02:27:23;;;;;;;6.63;1.70;;;6.90;99.90;;;;;;5466659;26;20020;-78
2024/04/20 02:29:48;;;;;;;6.15;1.95;;;6.80;99.90;;;;;;5466993;26;20011;-78
2024/04/20 02:32:14;;;;;;;7.22;2.00;;;7.30;99.90;;;;;;5465318;26;20006;-78
2024/04/20 02:34:40;;;;;;;3.75;1.50;;;6.80;99.90;;;;;;5477859;26;20003;-78
2024/04/20 02:37:10;;;;;;;7.65;1.77;;;6.80;99.90;;;;;;5451550;26;20038;-78
2024/04/20 02:39:39;;;;;;;9.35;1.70;;;6.80;99.90;;;;;;5460703;26;20003;-78
2024/04/20 02:42:06;;;;;;;6.60;1.60;;;6.80;99.90;;;;;;5463876;26;20007;-78
2024/04/20 02:44:32;;;;;;;11.43;1.75;;;6.80;99.90;;;;;;5459653;26;20022;-78
2024/04/20 02:46:58;;;;;;;8.30;1.75;;;6.80;99.90;;;;;;5464174;26;20015;-78
2024/04/20 02:49:24;;;;;;;6.50;1.20;;;6.80;99.90;;;;;;5459622;26;20470;-78
2024/04/20 02:51:50;;;;;;;5.15;1.20;;;6.80;99.90;;;;;;5463677;26;20007;-78
2024/04/20 02:54:16;;;;;;;5.18;1.30;;;6.80;99.90;;;;;;5457584;26;20010;-78
2024/04/20 02:56:42;;;;;;;9.85;1.42;;;6.80;99.90;;;;;;5462746;26;20006;-78
2024/04/20 02:59:08;;;;;;;9.48;1.08;;;6.70;99.90;;;;;;5454043;26;20056;-78
2024/04/20 03:01:44;;;;;;;7.45;1.27;;;6.70;99.90;;;;;;5457804;26;20003;-78
2024/04/20 03:04:09;;;;;;;9.75;1.20;;;6.70;99.90;;;;;;5464982;26;20007;-78
2024/04/20 03:06:35;;;;;;;4.50;1.15;;;6.70;99.90;;;;;;5451939;26;20015;-78
2024/04/20 03:09:21;;;;;;;6.85;1.15;;;6.70;99.90;;;;;;5461632;26;20352;-78
2024/04/20 03:11:47;;;;;;;3.08;0.85;;;6.60;99.90;;;;;;5463190;26;20084;-78
2024/04/20 03:14:13;;;;;;;6.68;1.00;;;6.60;99.90;;;;;;5467076;26;20019;-78
2024/04/20 03:16:38;;;;;;;3.25;0.82;;;6.60;99.90;;;;;;5474983;26;20017;-78
2024/04/20 03:19:04;;;;;;;2.58;0.90;;;6.60;99.90;;;;;;5456024;26;20297;-78
2024/04/20 03:21:30;;;;;;;3.22;0.93;;;6.50;99.90;;;;;;5453517;26;20088;-78
2024/04/20 03:23:55;;;;;;;2.28;0.80;;;6.50;99.90;;;;;;5477541;26;20042;-78
2024/04/20 03:26:41;;;;;;;3.85;0.65;;;6.40;99.90;;;;;;5481802;26;20451;-78
2024/04/20 03:29:07;;;;;;;1.27;0.55;;;6.40;99.90;;;;;;5462569;26;20017;-78
2024/04/20 03:31:32;;;;;;;4.53;0.80;;;6.40;99.90;;;;;;5459558;26;20052;-78
2024/04/20 03:34:06;;;;;;;1.67;0.70;;;6.40;99.90;;;;;;5453698;26;20018;-78
2024/04/20 03:36:33;;;;;;;2.92;0.60;;;6.40;99.90;;;;;;5459602;26;20385;-78
2024/04/20 03:39:22;;;;;;;4.88;0.65;;;6.40;99.90;;;;;;5468241;26;20803;-78
2024/04/20 03:41:47;;;;;;;5.45;0.90;;;6.40;99.90;;;;;;5459945;26;20003;-78
2024/04/20 03:44:14;;;;;;;2.38;0.63;;;6.50;99.90;;;;;;5471447;26;20002;-78
2024/04/20 03:46:40;;;;;;;3.08;0.73;;;6.30;99.90;;;;;;5454187;26;20007;-78
2024/04/20 03:49:06;;;;;;;7.05;1.05;;;6.30;99.90;;;;;;5458185;26;20015;-78
2024/04/20 03:51:32;;;;;;;5.22;1.10;;;6.30;99.90;;;;;;5452366;26;20054;-78
2024/04/20 03:54:10;;;;;;;6.30;0.93;;;6.30;99.90;;;;;;5461437;26;20546;-78
2024/04/20 03:56:35;;;;;;;3.13;0.70;;;6.30;99.90;;;;;;5451431;26;20017;-78
2024/04/20 03:59:21;;;;;;;7.53;1.05;;;6.30;99.90;;;;;;5447954;26;20010;-78
2024/04/20 04:02:07;;;;;;;4.38;0.68;;;6.30;99.90;;;;;;5450329;26;19999;-79
2024/04/20 04:04:53;;;;;;;2.55;0.90;;;6.40;99.90;;;;;;5475238;26;20049;-79
2024/04/20 04:07:39;;;;;;;5.95;0.80;;;6.30;99.90;;;;;;5465319;26;20088;-79
2024/04/20 04:10:25;;;;;;;4.70;1.45;;;6.40;99.90;;;;;;5469946;26;20078;-79
2024/04/20 04:13:12;;;;;;;3.67;1.00;;;6.90;99.90;;;;;;5458114;26;20481;-79
2024/04/20 04:15:58;;;;;;;5.45;1.67;;;6.40;99.90;;;;;;5498117;26;19998;-79
2024/04/20 04:18:43;;;;;;;6.22;0.90;;;6.30;99.90;;;;;;5464504;26;20075;-79
2024/04/20 04:21:34;;;;;;;5.25;0.77;;;6.40;99.90;;;;;;5470971;26;20006;-79
2024/04/20 04:24:20;;;;;;;5.82;1.00;;;6.30;99.90;;;;;;5460663;26;20002;-79
2024/04/20 04:27:13;;;;;;;4.55;0.98;;;6.30;99.90;;;;;;5477798;26;20018;-79
2024/04/20 04:29:59;;;;;;;2.90;0.73;;;6.30;99.90;;;;;;5469408;26;20002;-79
2024/04/20 04:32:44;;;;;;;3.35;0.82;;;6.30;99.90;;;;;;5475008;26;20014;-79
2024/04/20 04:35:30;;;;;;;5.13;0.88;;;6.30;99.90;;;;;;5456076;26;20013;-79
2024/04/20 04:38:16;;;;;;;5.13;0.90;;;6.30;99.90;;;;;;5460076;26;20002;-79
2024/04/20 04:41:03;;;;;;;4.63;0.75;;;6.30;99.90;;;;;;5454339;26;20003;-79
2024/04/20 04:43:48;;;;;;;5.82;1.30;;;6.30;99.90;;;;;;5481704;26;20002;-79
2024/04/20 04:46:34;;;;;;;6.53;0.90;;;6.40;99.90;;;;;;5452677;26;20079;-79
2024/04/20 04:49:21;;;;;;;3.47;0.88;;;6.40;99.90;;;;;;5461933;26;20399;-79
2024/04/20 04:52:06;;;;;;;4.40;0.60;;;6.40;99.90;;;;;;5446707;26;20003;-79
2024/04/20 04:54:52;;;;;;;4.90;0.52;;;6.40;99.90;;;;;;5462202;26;20075;-79
2024/04/20 04:57:38;;;;;;;3.88;0.60;;;6.40;99.90;;;;;;5453103;26;20372;-79
2024/04/20 05:00:23;;;;;;;4.80;0.93;;;6.40;99.90;;;;;;5474118;26;19998;-79
2024/04/20 05:03:09;;;;;;;4.15;1.60;;;6.40;99.90;;;;;;5472300;26;20009;-79
2024/04/20 05:05:55;;;;;;;7.15;2.30;;;6.50;99.90;;;;;;5445867;26;19999;-79
2024/04/20 05:08:40;;;;;;;6.25;2.50;;;6.40;99.90;;;;;;5454771;26;20010;-79
2024/04/20 05:11:26;;;;;;;5.47;1.67;;;6.50;99.90;;;;;;5473938;26;20351;-79
2024/04/20 05:14:12;;;;;;;4.05;1.15;;;6.50;99.90;;;;;;5446144;26;19999;-79
2024/04/20 05:16:58;;;;;;;7.82;1.00;;;6.80;99.90;;;;;;5447776;26;20009;-79
2024/04/20 05:19:44;;;;;;;4.88;1.00;;;6.60;99.90;;;;;;5460974;26;20003;-79
2024/04/20 05:22:29;;;;;;;2.78;0.63;;;6.50;99.90;;;;;;5448142;26;20031;-79
2024/04/20 05:25:15;;;;;;;8.32;0.95;;;6.50;99.90;;;;;;5477287;26;20529;-79
2024/04/20 05:28:01;;;;;;;6.32;0.98;;;6.50;99.90;;;;;;5470899;26;20003;-79
2024/04/20 05:30:46;;;;;;;3.20;0.73;;;6.60;99.90;;;;;;5455170;26;20075;-79
2024/04/20 05:33:32;;;;;;;4.20;0.80;;;6.60;99.90;;;;;;5467220;26;20082;-79
2024/04/20 05:36:17;;;;;;;4.28;0.80;;;6.60;99.90;;;;;;5459000;26;20356;-79
2024/04/20 05:39:03;;;;;;;4.30;0.80;;;6.70;99.90;;;;;;5447964;26;20385;-79
2024/04/20 05:41:50;;;;;;;2.53;0.60;;;6.70;99.90;;;;;;5479225;26;20400;-79
2024/04/20 05:44:36;;;;;;;4.25;0.80;;;6.70;99.90;;;;;;5475131;26;20002;-79
2024/04/20 05:47:22;;;;;;;3.65;0.75;;;6.70;99.90;;;;;;5458002;26;20014;-79
2024/04/20 05:50:07;;;;;;;6.70;0.82;;;6.70;99.90;;;;;;5463671;26;20363;-80
2024/04/20 05:52:53;;;;;;;5.70;1.05;;;6.70;99.90;;;;;;5476087;26;20014;-79
2024/04/20 05:55:40;;;;;;;4.70;1.00;;;6.70;99.90;;;;;;5475425;26;20003;-79
2024/04/20 05:58:26;;;;;;;4.20;1.02;;;6.80;99.90;;;;;;5456149;26;20074;-79
2024/04/20 06:01:16;;;;;;;5.05;0.90;;;6.80;99.90;;;;;;5479083;26;20002;-79
2024/04/20 06:04:03;;;;;;;2.42;0.88;;;6.80;99.90;;;;;;5452738;26;20018;-79
2024/04/20 06:06:49;;;;;;;7.03;0.90;;;6.90;99.90;;;;;;5465939;26;20100;-79
2024/04/20 06:09:35;;;;;;;9.05;1.38;;;6.90;99.90;;;;;;5467560;26;20015;-79
2024/04/20 06:12:20;;;;;;;6.10;1.13;;;6.90;99.90;;;;;;5472277;26;20017;-79
2024/04/20 06:15:08;;;;;;;6.95;1.25;;;7.00;99.90;;;;;;5478939;26;20073;-79
2024/04/20 06:17:54;;;;;;;9.60;1.08;;;7.00;99.90;;;;;;5449917;26;20470;-79
2024/04/20 06:20:40;;;;;;;5.60;1.30;;;7.00;99.90;;;;;;5463335;26;20464;-79
2024/04/20 06:23:26;;;;;;;8.98;1.77;;;7.00;99.90;;;;;;5468851;26;20010;-79
2024/04/20 06:26:12;;;;;;;7.47;0.90;;;7.00;99.90;;;;;;5458997;26;20100;-79
2024/04/20 06:28:58;;;;;;;8.60;1.40;;;7.10;99.90;;;;;;5464056;26;19999;-79
2024/04/20 06:31:43;;;;;;;7.25;1.55;;;7.10;99.90;;;;;;5462620;26;20521;-80
2024/04/20 06:34:30;;;;;;;7.72;0.95;;;7.10;99.90;;;;;;5453160;26;20052;-80
2024/04/20 06:37:15;;;;;;;4.10;1.75;;;7.10;99.90;;;;;;5460028;26;20014;-80
2024/04/20 06:40:01;;;;;;;7.40;1.30;;;7.20;99.90;;;;;;5448611;26;20079;-80
2024/04/20 06:42:48;;;;;;;6.60;1.23;;;7.20;99.90;;;;;;5448729;26;20695;-80
2024/04/20 06:45:35;;;;;;;6.72;1.98;;;7.20;99.90;;;;;;5466199;26;20097;-80
2024/04/20 06:48:21;;;;;;;5.65;1.55;;;7.20;99.90;;;;;;5456398;26;20566;-80
2024/04/20 06:51:07;;;;;;;8.77;1.60;;;7.20;99.90;;;;;;5458293;26;20003;-79
2024/04/20 06:53:52;;;;;;;9.00;1.30;;;7.30;99.90;;;;;;5461446;26;20002;-79
2024/04/20 06:56:38;;;;;;;6.10;1.20;;;7.50;99.90;;;;;;5448571;26;20010;-80
2024/04/20 06:59:25;;;;;;;10.10;1.20;;;7.40;99.90;;;;;;5477756;26;20065;-80
2024/04/20 07:02:12;;;;;;;8.35;1.52;;;7.40;99.90;;;;;;5465478;26;20003;-80
2024/04/20 07:04:58;;;;;;;11.05;1.40;;;7.80;99.90;;;;;;5466544;26;20003;-79
2024/04/20 07:07:44;;;;;;;7.35;1.70;;;7.50;99.90;;;;;;5467489;26;20472;-80
2024/04/20 07:10:30;;;;;;;8.27;1.70;;;7.50;99.90;;;;;;5484706;26;20042;-80
2024/04/20 07:13:15;;;;;;;6.90;1.88;;;7.60;99.90;;;;;;5455874;26;20003;-79
2024/04/20 07:16:02;;;;;;;7.50;1.33;;;7.60;99.90;;;;;;5454930;26;20424;-79
2024/04/20 07:18:48;;;;;;;10.90;2.00;;;7.60;99.90;;;;;;5464502;26;20007;-79
2024/04/20 07:21:34;;;;;;;13.45;1.80;;;7.60;99.90;;;;;;5455763;26;20003;-79
2024/04/20 07:24:20;;;;;;;10.90;1.80;;;7.50;99.90;;;;;;5474942;26;20002;-79
2024/04/20 07:27:05;;;;;;;11.80;2.20;;;7.50;99.90;;;;;;5478497;26;20058;-80
2024/04/20 07:29:51;;;;;;;11.32;1.75;;;7.50;99.90;;;;;;5457597;26;20803;-80
2024/04/20 07:32:37;;;;;;;11.18;1.67;;;7.50;99.90;;;;;;5476471;26;20002;-80
2024/04/20 07:35:23;;;;;;;8.20;1.85;;;7.60;99.90;;;;;;5459774;26;20348;-80
2024/04/20 07:38:08;;;;;;;7.82;2.60;;;7.60;99.90;;;;;;5462977;26;20062;-79
2024/04/20 07:40:54;;;;;;;8.98;1.80;;;7.70;99.90;;;;;;5463802;26;20003;-80
2024/04/20 07:43:40;;;;;;;10.23;1.90;;;7.70;99.90;;;;;;5480648;26;20015;-80
2024/04/20 07:46:26;;;;;;;8.18;1.75;;;7.80;99.90;;;;;;5457066;26;20568;-80
2024/04/20 07:49:12;;;;;;;15.13;1.80;;;7.80;99.90;;;;;;5466756;26;20002;-80
2024/04/20 07:51:57;;;;;;;11.32;1.80;;;7.80;99.90;;;;;;5459883;26;20003;-80
2024/04/20 07:54:43;;;;;;;6.70;1.58;;;7.90;99.90;;;;;;5441665;26;20002;-80
2024/04/20 07:57:29;;;;;;;15.73;1.80;;;8.10;99.90;;;;;;5477414;26;20013;-80
2024/04/20 08:00:16;;;;;;;9.15;1.98;;;8.20;99.90;;;;;;5459493;26;20013;-80
2024/04/20 08:03:01;;;;;;;10.85;2.13;;;8.30;99.90;;;;;;5462384;26;20026;-80
2024/04/20 08:05:47;;;;;;;13.60;2.22;;;8.40;99.90;;;;;;5456155;26;20015;-80
2024/04/20 08:08:33;;;;;;;8.82;1.90;;;8.50;99.90;;;;;;5468348;26;20003;-80
2024/04/20 08:11:18;;;;;;;11.15;2.08;;;8.50;99.90;;;;;;5464504;26;19998;-80
2024/04/20 08:14:04;;;;;;;12.30;2.40;;;8.50;99.90;;;;;;5456677;26;20076;-80
2024/04/20 08:16:50;;;;;;;9.80;1.48;;;8.60;99.90;;;;;;5461470;26;20006;-80
2024/04/20 08:19:35;;;;;;;14.40;2.10;;;8.60;99.90;;;;;;5459886;26;20002;-80
2024/04/20 08:22:21;;;;;;;7.32;1.80;;;8.60;99.90;;;;;;5463001;26;20010;-80
2024/04/20 08:25:07;;;;;;;7.25;1.80;;;8.60;99.90;;;;;;5458327;26;20035;-80
2024/04/20 08:27:52;;;;;;;11.98;2.22;;;8.50;99.90;;;;;;5476025;26;20006;-80
2024/04/20 08:30:41;;;;;;;13.20;2.33;;;8.30;99.90;;;;;;5459049;26;20474;-80
2024/04/20 08:33:27;;;;;;;8.23;1.80;;;8.50;99.90;;;;;;5452591;26;20003;-80
2024/04/20 08:36:12;;;;;;;7.18;1.65;;;8.50;99.90;;;;;;5461415;26;20010;-80
2024/04/20 08:38:58;;;;;;;14.75;2.17;;;8.20;99.90;;;;;;5459074;26;20007;-79
2024/04/20 08:41:55;;;;;;;9.35;1.50;;;8.30;99.90;;;;;;5454878;26;20014;-80
2024/04/20 08:44:48;;;;;;;7.43;1.55;;;8.50;99.90;;;;;;5477322;26;20018;-79
2024/04/20 08:47:34;;;;;;;10.65;1.75;;;8.80;99.90;;;;;;5474050;26;20432;-80
2024/04/20 08:50:22;;;;;;;5.53;1.00;;;9.10;99.90;;;;;;5480965;26;20017;-80
2024/04/20 08:53:09;;;;;;;4.75;1.08;;;9.30;99.90;;;;;;5464684;26;20002;-80
2024/04/20 08:55:55;;;;;;;4.30;0.80;;;9.20;99.90;;;;;;5469737;26;20010;-80
2024/04/20 08:58:41;;;;;;;7.50;0.90;;;9.10;99.90;;;;;;5448728;26;20007;-80
2024/04/20 09:01:12;;;;;;;3.83;1.02;;;8.90;99.90;;;;;;5463240;26;20078;-80
2024/04/20 09:03:37;;;;;;;4.38;0.80;;;8.80;99.90;;;;;;5450993;26;20020;-80
2024/04/20 09:06:23;;;;;;;5.30;1.27;;;9.00;99.90;;;;;;5445595;26;20017;-80
2024/04/20 09:09:11;;;;;;;5.85;0.90;;;9.30;99.90;;;;;;5456274;26;20014;-79
2024/04/20 09:11:36;;;;;;;9.52;0.88;;;9.60;99.90;;;;;;5463653;26;20474;-79
2024/04/20 09:14:23;;;;;;;4.57;0.90;;;9.70;99.90;;;;;;5460235;26;20002;-79
2024/04/20 09:16:49;;;;;;;4.55;0.70;;;9.80;99.90;;;;;;5464050;26;20018;-79
2024/04/20 09:19:35;;;;;;;2.55;0.60;;;10.00;99.90;;;;;;5476096;26;20079;-79
2024/04/20 09:22:21;;;;;;;3.53;1.00;;;10.00;99.90;;;;;;5463735;26;20072;-80
2024/04/20 09:25:06;;;;;;;4.70;1.20;;;9.90;99.90;;;;;;5487364;26;20340;-79
2024/04/20 09:27:52;;;;;;;2.30;0.60;;;10.10;99.90;;;;;;5478412;26;20049;-79
2024/04/20 09:30:38;;;;;;;1.95;0.60;;;10.00;99.90;;;;;;5466767;26;20402;-79
2024/04/20 09:33:24;;;;;;;6.60;1.10;;;10.00;99.90;;;;;;5450468;26;20003;-79
2024/04/20 09:36:12;;;;;;;4.15;0.80;;;10.20;99.90;;;;;;5481625;26;19998;-78
2024/04/20 09:38:57;;;;;;;3.65;1.13;;;10.30;99.90;;;;;;5470292;26;20054;-78
2024/04/20 09:41:51;;;;;;;3.50;1.10;;;10.30;99.90;;;;;;5479203;26;20013;-77
2024/04/20 09:44:40;;;;;;;4.72;1.20;;;10.40;99.90;;;;;;5472360;26;20010;-78
2024/04/20 09:47:33;;;;;;;4.38;1.35;;;10.60;99.90;;;;;;5449028;26;20021;-78
2024/04/20 09:50:19;;;;;;;7.60;1.90;;;11.10;99.90;;;;;;5460967;26;20003;-78
2024/04/20 09:53:33;;;;;;;5.03;1.13;;;11.30;99.90;;;;;;5457149;26;20002;-79
2024/04/20 09:56:20;;;;;;;5.53;1.58;;;11.20;99.90;;;;;;5465827;26;20407;-79
2024/04/20 09:59:07;;;;;;;6.65;1.75;;;11.10;99.90;;;;;;5483582;26;20419;-79
2024/04/20 10:01:54;;;;;;;7.28;1.70;;;11.20;99.90;;;;;;5450790;26;20079;-79
2024/04/20 10:04:40;;;;;;;7.10;1.38;;;11.40;99.90;;;;;;5465223;26;20021;-80
2024/04/20 10:07:29;;;;;;;;;;;11.60;99.90;;;;;;5483633;26;20002;-79
2024/04/20 10:10:16;;;;;;;7.30;1.45;;;11.90;99.90;;;;;;5462626;26;19924;-79
2024/04/20 10:13:03;;;;;;;3.28;1.15;;;12.00;99.90;;;;;;5455266;26;20465;-79
2024/04/20 10:15:53;;;;;;;4.82;0.95;;;11.80;99.90;;;;;;5452167;26;20018;-79
2024/04/20 10:18:39;;;;;;;4.03;1.05;;;11.60;99.90;;;;;;5458820;26;20002;-79
2024/04/20 10:21:25;;;;;;;2.63;0.73;;;11.60;99.90;;;;;;5469396;26;20088;-78
2024/04/20 10:24:11;;;;;;;3.97;0.98;;;11.70;99.90;;;;;;5456126;26;20061;-79
2024/04/20 10:26:57;;;;;;;5.72;0.88;;;11.90;99.90;;;;;;5473688;26;20022;-79
2024/04/20 10:29:43;;;;;;;4.25;1.13;;;12.30;99.90;;;;;;5467832;26;19999;-79
2024/04/20 10:32:28;;;;;;;;;;;12.40;99.90;;;;;;5473340;26;20003;-79
2024/04/20 10:35:21;;;;;;;;;;;12.60;99.90;;;;;;5478982;26;19923;-79
2024/04/20 10:38:09;;;;;;;;;;;12.60;99.90;;;;;;5460082;26;19932;-79
2024/04/20 10:40:55;;;;;;;3.10;0.80;;;12.30;99.90;;;;;;5455873;26;19997;-78
2024/04/20 10:43:42;;;;;;;7.43;0.90;;;12.10;99.90;;;;;;5449491;26;20002;-79
2024/04/20 10:46:27;;;;;;;3.28;0.90;;;12.10;99.90;;;;;;5465180;26;20018;-79
2024/04/20 10:49:14;;;;;;;;;;;12.40;99.90;;;;;;5479831;26;20018;-79
2024/04/20 10:52:00;;;;;;;;;;;12.70;99.90;;;;;;5464241;26;19924;-78
2024/04/20 10:54:45;;;;;;;;;;;12.90;99.90;;;;;;5479225;26;19948;-79
2024/04/20 10:57:33;;;;;;;;;;;12.90;99.90;;;;;;5465528;26;19924;-79
2024/04/20 11:00:19;;;;;;;;;;;12.90;99.90;;;;;;5460337;26;20269;-79
2024/04/20 11:02:49;;;;;;;;;;;13.00;99.90;;;;;;5469037;26;19924;-79
2024/04/20 11:05:15;;;;;;;;;;;13.20;99.90;;;;;;5460194;26;19932;-80
2024/04/20 11:07:40;;;;;;;;;;;13.30;99.90;;;;;;5451502;26;20339;-79
2024/04/20 11:10:27;;;;;;;;;;;13.60;99.90;;;;;;5475132;26;19924;-79
2024/04/20 11:13:12;;;;;;;;;;;13.50;99.90;;;;;;5467294;26;19924;-78
2024/04/20 11:15:58;;;;;;;;;;;13.30;99.90;;;;;;5454492;26;19924;-79
2024/04/20 11:18:44;;;;;;;;;;;12.90;99.90;;;;;;5461023;26;20368;-79
2024/04/20 11:21:30;;;;;;;12.02;1.80;;;12.70;99.90;;;;;;5453537;26;20061;-79
2024/04/20 11:24:17;;;;;;;6.65;1.60;;;12.30;99.90;;;;;;5457444;26;20002;-78
2024/04/20 11:27:07;;;;;;;6.28;1.23;;;12.10;99.90;;;;;;5451030;26;20356;-78
2024/04/20 11:29:53;;;;;;;5.30;1.00;;;11.70;99.90;;;;;;5479638;26;20435;-78
2024/04/20 11:32:39;;;;;;;6.45;1.30;;;11.30;99.90;;;;;;5449828;26;20002;-78
2024/04/20 11:35:29;;;;;;;7.13;1.88;;;11.10;99.90;;;;;;5459525;26;20047;-79
2024/04/20 11:38:15;;;;;;;8.05;2.08;;;10.80;99.90;;;;;;5477072;26;20002;-79
2024/04/20 11:41:01;;;;;;;6.32;1.95;;;10.50;99.90;;;;;;5451785;26;20013;-79
2024/04/20 11:43:46;;;;;;;7.07;2.08;;;10.50;99.90;;;;;;5468358;26;20003;-79
2024/04/20 11:46:39;;;;;;;7.80;1.60;;;10.40;99.90;;;;;;5466098;26;20007;-79
2024/04/20 11:49:26;;;;;;;9.07;2.20;;;10.50;99.90;;;;;;5455069;26;20014;-79
2024/04/20 11:55:26;;;;;;;7.35;1.45;;;11.00;99.90;;;;;;5477684;26;20035;-79
2024/04/20 11:57:55;;;;;;;8.13;1.65;;;11.20;99.90;;;;;;5458117;26;20072;-79
2024/04/20 12:00:20;;;;;;;3.85;1.30;;;11.10;99.90;;;;;;5466403;26;20006;-79
2024/04/20 12:02:48;;;;;;;13.20;2.22;;;11.10;99.90;;;;;;5465881;26;20081;-79
2024/04/20 12:05:14;;;;;;;7.50;1.80;;;11.00;99.90;;;;;;5462493;26;20020;-79
2024/04/20 12:07:40;;;;;;;7.38;1.85;;;10.90;99.90;;;;;;5456073;26;20007;-79
2024/04/20 12:10:09;;;;;;;7.68;1.80;;;11.00;99.90;;;;;;5469144;26;20014;-79
2024/04/20 12:12:35;;;;;;;7.72;1.20;;;10.70;99.90;;;;;;5466913;26;20017;-80
2024/04/20 12:15:01;;;;;;;6.10;1.33;;;11.00;99.90;;;;;;5468907;26;20017;-80
2024/04/20 12:17:26;;;;;;;8.93;1.70;;;11.30;99.90;;;;;;5458286;26;20007;-80
2024/04/20 12:19:52;;;;;;;11.65;1.65;;;11.60;99.90;;;;;;5461281;26;20014;-80
2024/04/20 12:22:18;;;;;;;10.07;1.63;;;11.80;99.90;;;;;;5487503;26;20009;-80
2024/04/20 12:24:45;;;;;;;7.18;1.42;;;12.00;99.90;;;;;;5471979;26;20018;-80
2024/04/20 12:27:11;;;;;;;10.85;1.80;;;12.10;99.90;;;;;;5505573;26;20002;-81
2024/04/20 12:29:37;;;;;;;8.68;1.55;;;12.10;99.90;;;;;;5451856;26;20022;-81
2024/04/20 12:32:03;;;;;;;6.30;1.40;;;12.10;99.90;;;;;;5486742;26;20016;-80
2024/04/20 12:34:29;;;;;;;4.90;1.20;;;11.70;99.90;;;;;;5453933;26;20412;-80
2024/04/20 12:36:55;;;;;;;3.95;1.10;;;11.50;99.90;;;;;;5461529;26;20014;-80
2024/04/20 12:39:21;;;;;;;3.85;1.25;;;11.30;99.90;;;;;;5469529;26;20021;-80
2024/04/20 12:41:46;;;;;;;5.05;1.05;;;11.60;99.90;;;;;;5475512;26;20005;-80
2024/04/20 12:44:12;;;;;;;9.38;1.65;;;11.40;99.90;;;;;;5473362;26;20006;-80
2024/04/20 12:46:38;;;;;;;4.18;1.10;;;11.60;99.90;;;;;;5467454;26;20009;-80
2024/04/20 12:49:05;;;;;;;6.75;1.42;;;11.50;99.90;;;;;;5468707;26;20051;-80
2024/04/20 12:51:31;;;;;;;7.10;1.40;;;11.50;99.90;;;;;;5453124;26;20014;-80
2024/04/20 12:53:57;;;;;;;3.95;1.60;;;11.50;99.90;;;;;;5457026;26;20009;-79
2024/04/20 12:56:23;;;;;;;9.85;1.70;;;11.60;99.90;;;;;;5452056;26;20047;-80
2024/04/20 12:58:48;;;;;;;8.18;1.40;;;11.60;99.90;;;;;;5459854;26;20006;-80
2024/04/20 13:01:14;;;;;;;10.32;1.80;;;11.60;99.90;;;;;;5471219;26;20010;-80
2024/04/20 13:03:41;;;;;;;6.18;2.47;;;11.50;99.90;;;;;;5487031;26;20010;-79
2024/04/20 13:06:07;;;;;;;9.02;1.95;;;11.30;99.90;;;;;;5461765;26;20014;-79
2024/04/20 13:08:33;;;;;;;8.55;1.60;;;11.10;99.90;;;;;;5466280;26;20503;-80
2024/04/20 13:10:58;;;;;;;5.53;1.65;;;11.00;99.90;;;;;;5460361;26;20435;-79
2024/04/20 13:13:24;;;;;;;6.43;1.38;;;10.80;99.90;;;;;;5453337;26;20018;-79
2024/04/20 13:15:58;;;;;;;4.93;1.13;;;10.70;99.90;;;;;;5476742;26;20021;-79
2024/04/20 13:18:27;;;;;;;7.57;1.70;;;10.70;99.90;;;;;;5474644;26;20007;-79
2024/04/20 13:20:53;;;;;;;8.25;1.65;;;10.60;99.90;;;;;;5469580;26;20149;-81
2024/04/20 13:23:19;;;;;;;5.68;1.77;;;10.80;99.90;;;;;;5473417;26;20021;-80
2024/04/20 13:25:54;;;;;;;6.15;2.20;;;11.00;99.90;;;;;;5458114;26;20003;-80
2024/04/20 13:28:22;;;;;;;8.05;3.00;;;11.20;99.90;;;;;;5464958;26;20007;-80
2024/04/20 13:30:52;;;;;;;7.90;3.03;;;11.50;99.90;;;;;;5478776;26;20018;-80
2024/04/20 13:33:18;;;;;;;5.70;2.15;;;11.80;99.90;;;;;;5477682;26;20006;-80
2024/04/20 13:35:53;;;;;;;6.80;2.17;;;11.90;99.90;;;;;;5467813;26;20007;-81
2024/04/20 13:38:19;;;;;;;9.18;2.20;;;12.10;99.90;;;;;;5461920;26;20516;-80
2024/04/20 13:40:57;;;;;;;5.60;2.00;;;12.30;99.90;;;;;;5511587;26;20064;-80
2024/04/20 13:43:24;;;;;;;7.38;2.63;;;12.40;99.90;;;;;;5470403;26;20014;-80
2024/04/20 13:45:50;;;;;;;5.47;2.65;;;12.50;99.90;;;;;;5486300;26;20721;-80
2024/04/20 13:48:16;;;;;;;6.60;2.10;;;12.60;99.90;;;;;;5479120;26;20006;-80
2024/04/20 13:50:41;;;;;;;6.35;1.45;;;12.40;99.90;;;;;;5456733;26;20006;-80
2024/04/20 13:53:11;;;;;;;5.15;1.33;;;12.30;99.90;;;;;;5453663;26;20014;-81